| time (UTC) | temp C | wind direction | speed KPH | gust KPH | rain 1hr cm | rain 24hr cm | rain mn cm | humidity % | barometer mb |
| 20260507094542 | 10 | 0 | 0.0 | 0.0 | 0.00 | 0.79 | 0.46 | 92 | 1016.8 |
| 20260507093040 | 10 | 0 | 0.0 | 0.0 | 0.00 | 0.79 | 0.46 | 92 | 1017.1 |
| 20260507091542 | 11 | 0 | 0.0 | 0.0 | 0.00 | 0.79 | 0.46 | 92 | 1017.0 |
| 20260507090053 | 11 | 0 | 0.0 | 0.0 | 0.00 | 0.79 | 0.46 | 92 | 1016.8 |
| 20260507084547 | 11 | 0 | 0.0 | 0.0 | 0.00 | 0.79 | 0.46 | 92 | 1016.6 |
| 20260507083044 | 11 | 0 | 0.0 | 0.0 | 0.00 | 0.79 | 0.46 | 92 | 1016.4 |
| 20260507081541 | 11 | 0 | 0.0 | 0.0 | 0.00 | 0.79 | 0.46 | 92 | 1016.0 |
| 20260507080046 | 11 | 0 | 0.0 | 0.0 | 0.00 | 0.79 | 0.46 | 92 | 1016.0 |
| 20260507074543 | 11 | 0 | 0.0 | 0.0 | 0.03 | 0.79 | 0.46 | 92 | 1016.0 |
| 20260507073045 | 11 | 0 | 0.0 | 0.0 | 0.03 | 0.79 | 0.46 | 92 | 1016.1 |
| 20260507071545 | 11 | 0 | 0.0 | 0.0 | 0.05 | 0.79 | 0.46 | 91 | 1016.1 |
| 20260507070059 | 11 | 0 | 0.0 | 0.0 | 0.05 | 0.79 | 0.46 | 91 | 1016.3 |
| 20260507064549 | 12 | 0 | 0.0 | 0.0 | 0.03 | 0.76 | 0.43 | 92 | 1016.3 |
| 20260507063038 | 12 | 0 | 0.0 | 0.0 | 0.03 | 0.76 | 0.43 | 91 | 1016.1 |
| 20260507061537 | 12 | 0 | 0.0 | 0.0 | 0.00 | 0.74 | 0.41 | 92 | 1016.1 |
| 20260507060042 | 12 | 0 | 0.0 | 0.0 | 0.00 | 0.74 | 0.41 | 91 | 1016.1 |
| 20260507054602 | 12 | 0 | 0.0 | 0.0 | 0.13 | 0.74 | 0.41 | 91 | 1016.5 |
| 20260507053048 | 12 | 0 | 0.0 | 0.0 | 0.30 | 0.74 | 0.41 | 91 | 1016.4 |
| 20260507051547 | 13 | 0 | 0.0 | 0.0 | 0.38 | 0.74 | 0.41 | 91 | 1016.2 |
| 20260507050047 | 13 | 0 | 0.0 | 0.0 | 0.41 | 0.74 | 0.41 | 91 | 1016.2 |
| 20260507044540 | 13 | 0 | 0.0 | 0.0 | 0.28 | 0.61 | 0.28 | 90 | 1016.7 |
| 20260507043042 | 13 | 0 | 0.0 | 0.0 | 0.08 | 0.41 | 0.08 | 90 | 1016.4 |
| 20260507041555 | 14 | 0 | 0.0 | 0.0 | 0.03 | 0.36 | 0.03 | 89 | 1016.0 |
| 20260507040044 | 14 | 0 | 0.0 | 0.0 | 0.00 | 0.33 | 0.00 | 88 | 1016.0 |
| 20260507034539 | 15 | 0 | 0.0 | 0.0 | 0.00 | 0.33 | 0.33 | 88 | 1015.5 |
| 20260507033044 | 15 | 0 | 0.0 | 0.0 | 0.00 | 0.33 | 0.33 | 89 | 1015.5 |
| 20260507031542 | 15 | 0 | 0.0 | 0.0 | 0.00 | 0.33 | 0.33 | 89 | 1015.7 |
| 20260507030040 | 15 | 0 | 0.0 | 0.0 | 0.00 | 0.33 | 0.33 | 89 | 1015.4 |
| 20260507024551 | 15 | 0 | 0.0 | 0.0 | 0.00 | 0.33 | 0.33 | 89 | 1015.2 |
| 20260507023035 | 15 | 0 | 0.0 | 0.0 | 0.00 | 0.33 | 0.33 | 89 | 1015.1 |
| 20260507021540 | 16 | 0 | 0.0 | 0.0 | 0.00 | 0.33 | 0.33 | 89 | 1015.1 |
| 20260507020055 | 16 | 0 | 0.0 | 0.0 | 0.00 | 0.33 | 0.33 | 89 | 1015.2 |
| 20260507014547 | 17 | 0 | 0.0 | 0.0 | 0.00 | 0.33 | 0.33 | 89 | 1014.7 |
| 20260507013044 | 17 | 0 | 0.0 | 0.0 | 0.00 | 0.33 | 0.33 | 89 | 1015.3 |
| 20260507011554 | 17 | 0 | 0.0 | 0.0 | 0.00 | 0.33 | 0.33 | 88 | 1015.2 |
| 20260507010050 | 18 | 0 | 0.0 | 0.0 | 0.00 | 0.33 | 0.33 | 88 | 1015.0 |
| 20260507004550 | 18 | 0 | 0.0 | 0.0 | 0.00 | 0.33 | 0.33 | 87 | 1015.0 |
| 20260507003050 | 18 | 0 | 0.0 | 0.0 | 0.00 | 0.33 | 0.33 | 86 | 1014.5 |
| 20260507001559 | 19 | 0 | 0.0 | 0.0 | 0.00 | 0.33 | 0.33 | 85 | 1014.1 |
| 20260507000057 | 19 | 0 | 0.0 | 0.0 | 0.00 | 0.33 | 0.33 | 84 | 1014.1 |
| 20260506234601 | 19 | 0 | 0.0 | 0.0 | 0.00 | 0.33 | 0.33 | 83 | 1013.7 |
| 20260506233048 | 20 | 0 | 0.0 | 0.0 | 0.00 | 0.33 | 0.33 | 82 | 1013.7 |
| 20260506231537 | 20 | 0 | 0.0 | 0.0 | 0.00 | 0.33 | 0.33 | 82 | 1013.5 |
| 20260506230038 | 20 | 0 | 0.0 | 0.0 | 0.00 | 0.33 | 0.33 | 81 | 1013.7 |
| 20260506224542 | 20 | 0 | 0.0 | 0.0 | 0.00 | 0.33 | 0.33 | 81 | 1013.6 |
| 20260506223041 | 20 | 0 | 0.0 | 0.0 | 0.00 | 0.33 | 0.33 | 80 | 1013.4 |
| 20260506221550 | 20 | 0 | 0.0 | 0.0 | 0.00 | 0.33 | 0.33 | 80 | 1013.6 |
| 20260506220045 | 20 | 0 | 0.0 | 0.0 | 0.00 | 0.33 | 0.33 | 79 | 1013.5 |
| 20260506214632 | 20 | 0 | 0.0 | 0.0 | 0.00 | 0.33 | 0.33 | 78 | 1013.6 |
| 20260506213050 | 20 | 0 | 0.0 | 0.0 | 0.00 | 0.33 | 0.33 | 78 | 1013.4 |
| 20260506211552 | 20 | 0 | 0.0 | 4.8 | 0.00 | 0.33 | 0.33 | 78 | 1013.3 |
| 20260506210046 | 20 | 0 | 0.0 | 1.6 | 0.00 | 0.33 | 0.33 | 77 | 1013.1 |
| 20260506204537 | 20 | 0 | 0.0 | 1.6 | 0.00 | 0.33 | 0.33 | 77 | 1013.1 |
| 20260506203035 | 20 | 0 | 0.0 | 0.0 | 0.00 | 0.33 | 0.33 | 77 | 1013.0 |
| 20260506201542 | 20 | 0 | 0.0 | 6.4 | 0.00 | 0.33 | 0.33 | 76 | 1013.1 |
| 20260506200042 | 21 | 0 | 0.0 | 1.6 | 0.00 | 0.33 | 0.33 | 78 | 1013.0 |
| 20260506194543 | 21 | 0 | 0.0 | 8.0 | 0.00 | 0.33 | 0.33 | 77 | 1013.1 |
| 20260506193047 | 20 | 0 | 0.0 | 8.0 | 0.00 | 0.33 | 0.33 | 78 | 1013.0 |
| 20260506191545 | 20 | 0 | 0.0 | 6.4 | 0.00 | 0.33 | 0.33 | 80 | 1013.4 |
| 20260506190043 | 20 | 0 | 0.0 | 1.6 | 0.00 | 0.33 | 0.33 | 81 | 1013.4 |
| 20260506184540 | 19 | 0 | 0.0 | 11.3 | 0.00 | 0.33 | 0.33 | 82 | 1013.6 |
| 20260506183040 | 18 | 0 | 0.0 | 12.9 | 0.00 | 0.33 | 0.33 | 83 | 1013.7 |
| 20260506181553 | 18 | 204 | 0.0 | 6.4 | 0.00 | 0.33 | 0.33 | 84 | 1013.7 |
| 20260506180037 | 18 | 0 | 0.0 | 8.0 | 0.00 | 0.33 | 0.33 | 84 | 1014.0 |
| 20260506174542 | 18 | 0 | 0.0 | 6.4 | 0.00 | 0.33 | 0.33 | 86 | 1013.9 |
| 20260506173110 | 17 | 0 | 0.0 | 16.1 | 0.00 | 0.33 | 0.33 | 87 | 1013.9 |
| 20260506171543 | 17 | 0 | 0.0 | 8.0 | 0.00 | 0.33 | 0.33 | 88 | 1014.0 |
| 20260506170104 | 17 | 0 | 0.0 | 16.1 | 0.00 | 0.33 | 0.33 | 88 | 1014.0 |
| 20260506164543 | 16 | 0 | 0.0 | 6.4 | 0.00 | 0.33 | 0.33 | 89 | 1014.2 |
| 20260506163051 | 16 | 0 | 0.0 | 12.9 | 0.00 | 0.33 | 0.33 | 90 | 1014.3 |
| 20260506161541 | 16 | 0 | 0.0 | 11.3 | 0.03 | 0.33 | 0.33 | 90 | 1014.4 |
| 20260506160045 | 16 | 0 | 0.0 | 9.7 | 0.03 | 0.33 | 0.33 | 90 | 1014.4 |
| 20260506154600 | 16 | 251 | 0.0 | 4.8 | 0.08 | 0.33 | 0.33 | 90 | 1014.1 |
| 20260506153036 | 16 | 0 | 0.0 | 9.7 | 0.08 | 0.33 | 0.33 | 90 | 1014.3 |
| 20260506151542 | 15 | 0 | 0.0 | 4.8 | 0.10 | 0.30 | 0.30 | 90 | 1014.6 |
| 20260506150040 | 15 | 0 | 0.0 | 3.2 | 0.13 | 0.30 | 0.30 | 90 | 1014.9 |
| 20260506144549 | 15 | 0 | 0.0 | 11.3 | 0.13 | 0.25 | 0.25 | 90 | 1015.1 |
| 20260506143037 | 15 | 0 | 0.0 | 4.8 | 0.15 | 0.25 | 0.25 | 90 | 1015.1 |
| 20260506141542 | 16 | 0 | 0.0 | 8.0 | 0.13 | 0.20 | 0.20 | 90 | 1014.8 |
| 20260506140043 | 16 | 57 | 0.0 | 6.4 | 0.15 | 0.18 | 0.18 | 90 | 1014.9 |
| 20260506134545 | 16 | 0 | 0.0 | 1.6 | 0.10 | 0.13 | 0.13 | 90 | 1015.1 |
| 20260506133052 | 16 | 0 | 0.0 | 0.0 | 0.10 | 0.10 | 0.10 | 89 | 1015.7 |
| 20260506131536 | 16 | 0 | 0.0 | 0.0 | 0.08 | 0.08 | 0.08 | 88 | 1015.3 |
| 20260506130039 | 16 | 0 | 0.0 | 0.0 | 0.03 | 0.03 | 0.03 | 86 | 1015.2 |
| 20260506124542 | 17 | 0 | 0.0 | 0.0 | 0.03 | 0.03 | 0.03 | 84 | 1014.9 |
| 20260506123042 | 17 | 0 | 0.0 | 0.0 | 0.00 | 0.00 | 0.00 | 81 | 1015.0 |
| 20260506121537 | 17 | 0 | 0.0 | 0.0 | 0.00 | 0.00 | 0.00 | 79 | 1015.4 |
| 20260506120050 | 17 | 0 | 0.0 | 11.3 | 0.00 | 0.00 | 0.00 | 77 | 1015.5 |
| 20260506114548 | 17 | 0 | 0.0 | 6.4 | 0.00 | 0.00 | 0.00 | 76 | 1015.4 |
| 20260506113051 | 18 | 0 | 0.0 | 9.7 | 0.00 | 0.00 | 0.00 | 75 | 1015.0 |
| 20260506111538 | 18 | 0 | 0.0 | 6.4 | 0.00 | 0.00 | 0.00 | 74 | 1014.9 |
| 20260506110043 | 18 | 0 | 0.0 | 6.4 | 0.00 | 0.00 | 0.00 | 74 | 1014.7 |
| 20260506104607 | 18 | 0 | 0.0 | 4.8 | 0.00 | 0.00 | 0.00 | 74 | 1014.5 |
| 20260506103043 | 18 | 0 | 0.0 | 11.3 | 0.00 | 0.00 | 0.00 | 73 | 1014.3 |
| 20260506101547 | 18 | 0 | 0.0 | 8.0 | 0.00 | 0.00 | 0.00 | 73 | 1014.3 |
| 20260506100044 | 18 | 0 | 0.0 | 8.0 | 0.00 | 0.00 | 0.00 | 72 | 1014.3 |